Flight Track Log - Related Links

Times and Time Zones

All times are in EST time to prevent confusion due to time zone crossing. See the FLG4251 flight status page for this flight to view local times or setup timezone preferences in your user account.

Time Position Orientation Groundspeed Altitude Reporting Facility
EST Latitude Longitude Course Direction KTS MPH feet Rate Location/Type
Fri 06:48:47 AM 40.9456 -85.2250 194° South 168 193 3,400  Level Chicago Center
Fri 06:49:48 AM 40.8831 -85.2503 197° South 218 251 5,800 2,380 Climbing Chicago Center
Fri 06:50:48 AM 40.8100 -85.2669 190° South 257 296 8,200 2,300 Climbing Chicago Center
Fri 06:51:48 AM 40.7314 -85.2833 189° South 278 320 10,400 1,736 Climbing Chicago Center
Fri 06:52:49 AM 40.6531 -85.3017 190° South 312 359 11,700 1,488 Climbing Chicago Center
Fri 06:53:49 AM 40.5533 -85.3233 189° South 354 407 13,400 1,636 Climbing Chicago Center
Fri 06:54:00 AM 40.1123 -85.0963 194° South  Level Estimated
Fri 06:54:50 AM 40.4497 -85.3450 189° South 373 429 15,000  Level Chicago Center
Fri 06:55:50 AM 40.3428 -85.3692 190° South 386 444 16,500 1,648 Climbing Chicago Center
Fri 06:56:21 AM 40.2761 -85.3847 190° South 399 459 17,500 978 Climbing Indianapolis Center
Fri 06:57:22 AM 40.1661 -85.4178 193° South 410 472 18,000 1,091 Climbing Indianapolis Center
Fri 06:58:22 AM 40.0558 -85.4547 194° South 410 472 19,700 1,488 Climbing Indianapolis Center
Fri 06:59:23 AM 39.9444 -85.4903 194° South 411 473 21,000 1,082 Climbing Indianapolis Center
Fri 07:00:24 AM 39.8264 -85.5072 186° South 425 489 21,900 942 Climbing Indianapolis Center
Fri 07:01:24 AM 39.7039 -85.5169 183° South 438 504 22,900 1,041 Climbing Indianapolis Center
Fri 07:02:25 AM 39.5808 -85.5272 184° South 440 506 24,000 1,033 Climbing Indianapolis Center
Fri 07:03:26 AM 39.4556 -85.5361 183° South 447 514 25,000 843 Climbing Indianapolis Center
Fri 07:04:26 AM 39.3339 -85.5631 190° South 446 513 25,700 744 Climbing Indianapolis Center
Fri 07:05:27 AM 39.2175 -85.6083 197° South 438 504 26,500 787 Climbing Indianapolis Center
Fri 07:06:28 AM 39.1000 -85.6522 196° South 439 505 27,300 793 Climbing Indianapolis Center
Fri 07:07:28 AM 38.9828 -85.6942 196° South 437 503 28,100 793 Climbing Indianapolis Center
Fri 07:08:29 AM 38.8672 -85.7392 197° South 433 498 28,900 443 Climbing Indianapolis Center
Fri 07:09:30 AM 38.7522 -85.7819 196° South 433 498 29,000 50 Climbing Indianapolis Center
Fri 07:10:30 AM 38.6086 -85.8361 196° South 448 516 29,000  Level Indianapolis Center
Fri 07:11:31 AM 38.4828 -85.8819 196° South 458 527 29,000  Level Indianapolis Center
Fri 07:12:32 AM 38.3567 -85.9281 196° South 467 537 29,000  Level Indianapolis Center
Fri 07:13:32 AM 38.2289 -85.9750 196° South 471 542 29,000  Level Indianapolis Center
Fri 07:14:33 AM 38.1006 -86.0217 196° South 474 545 29,000  Level Indianapolis Center
Fri 07:15:34 AM 37.9722 -86.0686 196° South 474 545 29,000  Level Indianapolis Center
Fri 07:16:35 AM 37.8442 -86.1158 196° South 474 545 29,000  Level Indianapolis Center
Fri 07:17:36 AM 37.7164 -86.1614 196° South 472 543 29,000  Level Indianapolis Center
Fri 07:18:36 AM 37.5889 -86.2086 196° South 468 539 29,000  Level Indianapolis Center
Fri 07:19:37 AM 37.4633 -86.2528 196° South 464 534 29,000  Level Indianapolis Center
Fri 07:20:38 AM 37.3397 -86.2972 196° South 459 528 29,000  Level Indianapolis Center
Fri 07:21:39 AM 37.2122 -86.3256 190° South 472 543 29,000  Level Indianapolis Center
Fri 07:22:40 AM 37.0792 -86.3317 182° South 467 537 29,000  Level Indianapolis Center
Fri 07:23:41 AM 36.9517 -86.3344 181° South 464 534 29,000  Level Indianapolis Center
Fri 07:24:38 AM 36.8422 -86.3369 181° South 464 534 29,000  Level Memphis Center
Fri 07:25:39 AM 36.7119 -86.3417 182° South 462 532 29,000  Level Memphis Center
Fri 07:26:39 AM 36.5817 -86.3442 181° South 461 531 29,000  Level Memphis Center
Fri 07:27:40 AM 36.4522 -86.3489 182° South 459 528 29,000  Level Memphis Center
Fri 07:28:40 AM 36.3225 -86.3514 181° South 458 527 29,000  Level Memphis Center
Fri 07:29:41 AM 36.1933 -86.3550 181° South 456 525 29,000  Level Memphis Center
Fri 07:30:41 AM 36.0647 -86.3589 181° South 455 524 29,000  Level Memphis Center
Fri 07:31:42 AM 35.9369 -86.3628 181° South 454 522 29,000  Level Memphis Center
Fri 07:32:42 AM 35.8086 -86.3667 181° South 454 522 29,000  Level Memphis Center
Fri 07:33:43 AM 35.6867 -86.3208 163° South 467 537 29,000  Level Memphis Center
Fri 07:34:43 AM 35.5742 -86.2289 146° Southeast 477 549 29,000  Level Memphis Center
Fri 07:35:44 AM 35.4653 -86.1428 147° Southeast 477 549 29,000  Level Memphis Center
Fri 07:36:44 AM 35.3542 -86.0525 146° Southeast 479 551 29,000 -198 Level Memphis Center
Fri 07:37:45 AM 35.2425 -85.9639 147° Southeast 481 554 28,600 -694 Descending Memphis Center
Fri 07:38:45 AM 35.1289 -85.8733 147° Southeast 485 558 27,600 -992 Descending Memphis Center
Fri 07:39:46 AM 35.0153 -85.7839 147° Southeast 488 562 26,600 -984 Descending Memphis Center
Fri 07:40:47 AM 34.9031 -85.6964 147° Southeast 484 557 25,600 -992 Descending Memphis Center
Fri 07:41:47 AM 34.7906 -85.6075 147° Southeast 482 555 24,600 -992 Descending Memphis Center
Fri 07:42:48 AM 34.6811 -85.5217 147° Southeast 476 548 23,600 -1,033 Descending Memphis Center
Fri 07:43:49 AM 34.5736 -85.4372 147° Southeast 467 537 22,500 -1,488 Descending Memphis Center
Fri 07:44:49 AM 34.4706 -85.3569 147° Southeast 451 519 20,600 -1,920 Descending Memphis Center
Fri 07:45:54 AM 34.3539 -85.2667 147° Southeast 431 496 18,500 -1,584 Descending Atlanta Center
Fri 07:46:54 AM 34.2564 -85.1950 149° Southeast 408 470 17,300 -1,500 Descending Atlanta Center
Fri 07:47:54 AM 34.1611 -85.1158 145° Southeast 408 470 15,500 -1,650 Descending Atlanta Center
Fri 07:48:54 AM 34.0825 -85.0169 134° Southeast 408 470 14,000 -1,050 Descending Atlanta Center
Fri 07:49:54 AM 34.0061 -84.9183 133° Southeast 394 453 13,400 -800 Descending Atlanta Center
Fri 07:50:54 AM 33.9275 -84.8200 134° Southeast 394 453 12,400 -700 Descending Atlanta Center
Fri 07:51:54 AM 33.8592 -84.7367 135° Southeast 378 435 12,000 -200 Descending Atlanta Center
Fri 07:52:54 AM 33.7989 -84.6664 136° Southeast 325 374 12,000  Level Atlanta Center
Fri 07:53:54 AM 33.7428 -84.5958 134° Southeast 299 344 12,000 -350 Level Atlanta Center
Fri 07:54:54 AM 33.7308 -84.5033 99° East 271 312 11,300 -1,200 Descending Atlanta Center
Fri 07:55:54 AM 33.7331 -84.4161 88° East 256 295 9,600 -1,671 Descending Atlanta Center
Fri 07:57:14 AM 33.7333 -84.3000 90° East 231 266 7,400 -1,521 Descending Atlanta TRACON
Fri 07:58:20 AM 33.7333 -84.2333 90° East 198 228 5,900 -1,200 Descending Atlanta TRACON
Fri 07:59:14 AM 33.7167 -84.1833 112° Southeast 214 246 5,000 -1,211 Descending Atlanta TRACON
Fri 08:00:14 AM 33.6667 -84.1833 180° South 215 247 3,600 -952 Descending Atlanta TRACON
Fri 08:01:20 AM 33.6500 -84.2500 253° West 176 203 3,000 -300 Descending Atlanta TRACON
Fri 08:02:14 AM 33.6500 -84.2833 270° West 161 185 3,000 -350 Level Atlanta TRACON
Fri 08:03:20 AM 33.6500 -84.3500 270° West 136 157 2,300 -714 Descending Atlanta TRACON
Fri 08:04:20 AM 33.6500 -84.3833 270° West 133 153 1,500 -800 Descending Atlanta TRACON
Fri 08:06:00 AM 33.6333 -84.4167 237° Southwest  Level FlightAware Approximate
Fri 08:13:00 AM 33.6367 -84.4279 237° Southwest  Level Estimated

Login

Don't have an account? Register now (free) for customized features, flight alerts, and more!